createdAt,value
2019-06-10T00:00:16.375Z,101765.09
2019-06-10T00:02:50.751Z,101766.06
2019-06-10T00:05:24.318Z,101766.54
2019-06-10T00:07:58.024Z,101765.01
2019-06-10T00:10:31.432Z,101766.91
2019-06-10T00:13:05.676Z,101766.45
2019-06-10T00:15:40.941Z,101752.63
2019-06-10T00:18:34.398Z,101753.08
2019-06-10T00:20:51.242Z,101748.91
2019-06-10T00:23:25.819Z,101744.28
2019-06-10T00:26:03.222Z,101750.39
2019-06-10T00:28:34.173Z,101747.88
2019-06-10T00:31:08.629Z,101750.49
2019-06-10T00:33:42.012Z,101746.33
2019-06-10T00:36:15.328Z,101747.36
2019-06-10T00:38:48.683Z,101743.34
2019-06-10T00:41:22.137Z,101743.48
2019-06-10T00:43:55.500Z,101743.05
2019-06-10T00:46:28.799Z,101735.67
2019-06-10T00:49:05.623Z,101723.06
2019-06-10T00:51:37.323Z,101708.68
2019-06-10T00:54:15.288Z,101707.00
2019-06-10T00:56:45.727Z,101698.30
2019-06-10T00:59:21.799Z,101694.80
2019-06-10T01:01:54.366Z,101691.77
2019-06-10T01:04:27.735Z,101682.42
2019-06-10T01:07:02.383Z,101674.27
2019-06-10T01:09:35.928Z,101665.17
2019-06-10T01:12:11.944Z,101666.22
2019-06-10T01:14:44.252Z,101660.72
2019-06-10T01:17:17.566Z,101658.15
2019-06-10T01:19:51.649Z,101656.89
2019-06-10T01:22:24.949Z,101653.45
2019-06-10T01:24:58.286Z,101652.33
2019-06-10T01:27:33.165Z,101651.17
2019-06-10T01:30:15.253Z,101651.09
2019-06-10T01:32:42.363Z,101649.45
2019-06-10T01:35:16.175Z,101654.32
2019-06-10T01:37:51.996Z,101656.27
2019-06-10T01:40:25.589Z,101652.50
2019-06-10T01:43:00.952Z,101652.95
2019-06-10T01:45:33.929Z,101646.92
2019-06-10T01:48:08.830Z,101644.33
2019-06-10T01:50:42.205Z,101645.86
2019-06-10T01:53:17.176Z,101645.11
2019-06-10T01:55:51.939Z,101641.14
2019-06-10T01:58:25.682Z,101634.28
2019-06-10T02:01:01.271Z,101634.34
2019-06-10T02:03:34.047Z,101630.16
2019-06-10T02:06:08.702Z,101626.42
2019-06-10T02:08:42.239Z,101622.82
2019-06-10T02:11:17.639Z,101620.36
2019-06-10T02:13:51.559Z,101613.88
2019-06-10T02:16:24.864Z,101607.61
2019-06-10T02:19:03.433Z,101609.48
2019-06-10T02:21:33.191Z,101608.97
2019-06-10T02:24:06.527Z,101608.22
2019-06-10T02:26:41.060Z,101603.89
2019-06-10T02:29:15.808Z,101601.48
2019-06-10T02:31:52.141Z,101595.58
2019-06-10T02:34:27.396Z,101597.36
2019-06-10T02:36:59.476Z,101594.38
2019-06-10T02:39:38.272Z,101589.17
2019-06-10T02:42:08.030Z,101586.30
2019-06-10T02:44:44.326Z,101579.08
2019-06-10T02:47:19.113Z,101572.44
2019-06-10T02:49:59.137Z,101566.88
2019-06-10T02:52:32.599Z,101564.36
2019-06-10T02:55:04.147Z,101556.74
2019-06-10T02:57:40.022Z,101549.97
2019-06-10T03:00:20.762Z,101544.69
2019-06-10T03:02:46.584Z,101544.33
2019-06-10T03:05:25.563Z,101533.48
2019-06-10T03:07:54.938Z,101530.27
2019-06-10T03:10:32.470Z,101523.89
2019-06-10T03:13:03.317Z,101525.25
2019-06-10T03:15:36.629Z,101520.51
2019-06-10T03:18:10.059Z,101514.00
2019-06-10T03:20:43.377Z,101515.71
2019-06-10T03:23:18.301Z,101522.66
2019-06-10T03:25:52.697Z,101517.53
2019-06-10T03:28:26.413Z,101519.27
2019-06-10T03:31:00.002Z,101524.94
2019-06-10T03:33:40.974Z,101528.45
2019-06-10T03:36:08.363Z,101530.18
2019-06-10T03:38:43.255Z,101524.56
2019-06-10T03:41:16.801Z,101517.14
2019-06-10T03:43:50.167Z,101513.27
2019-06-10T03:46:26.650Z,101508.42
2019-06-10T03:48:59.628Z,101511.21
2019-06-10T03:51:33.436Z,101508.36
2019-06-10T03:54:06.865Z,101508.37
2019-06-10T03:56:42.760Z,101517.09
2019-06-10T03:59:15.224Z,101513.18
2019-06-10T04:01:48.525Z,101519.16
2019-06-10T04:04:24.000Z,101511.48
2019-06-10T04:06:57.130Z,101510.15
2019-06-10T04:09:30.454Z,101504.05
2019-06-10T04:12:03.768Z,101503.20
2019-06-10T04:14:36.933Z,101503.20
2019-06-10T04:17:10.255Z,101493.64
2019-06-10T04:19:43.588Z,101493.64
2019-06-10T04:22:17.624Z,101498.55
2019-06-10T04:24:52.077Z,101494.37
2019-06-10T04:27:27.156Z,101497.08
2019-06-10T04:30:03.111Z,101495.94
2019-06-10T04:32:35.765Z,101493.94
2019-06-10T04:35:09.164Z,101491.56
2019-06-10T04:37:42.943Z,101492.13
2019-06-10T04:40:16.384Z,101486.12
2019-06-10T04:42:49.707Z,101485.21
2019-06-10T04:45:23.675Z,101475.70
2019-06-10T04:47:58.099Z,101471.84
2019-06-10T04:50:41.625Z,101474.95
2019-06-10T04:53:07.251Z,101468.87
2019-06-10T04:55:43.038Z,101469.28
2019-06-10T04:58:15.604Z,101470.73
2019-06-10T05:00:49.093Z,101466.97
2019-06-10T05:03:23.851Z,101462.48
2019-06-10T05:05:57.437Z,101456.14
2019-06-10T05:08:33.299Z,101457.86
2019-06-10T05:11:05.871Z,101455.11
2019-06-10T05:13:39.180Z,101452.66
2019-06-10T05:16:12.838Z,101448.77
2019-06-10T05:18:46.707Z,101444.41
2019-06-10T05:21:22.971Z,101444.88
2019-06-10T05:23:55.112Z,101450.09
2019-06-10T05:26:29.239Z,101446.67
2019-06-10T05:29:04.676Z,101448.59
2019-06-10T05:31:38.045Z,101443.14
2019-06-10T05:34:13.070Z,101449.88
2019-06-10T05:36:46.855Z,101378.64
2019-06-10T05:39:21.495Z,101438.75
2019-06-10T05:41:55.235Z,101439.38
2019-06-10T05:44:29.631Z,101441.39
2019-06-10T05:47:04.101Z,101448.52
2019-06-10T05:49:37.533Z,101450.30
2019-06-10T05:52:12.633Z,101447.66
2019-06-10T05:54:46.810Z,101459.00
2019-06-10T05:57:22.619Z,101449.46
2019-06-10T05:59:55.251Z,101445.60
2019-06-10T06:02:29.608Z,101453.69
2019-06-10T06:05:05.842Z,101444.61
2019-06-10T06:07:39.247Z,101439.38
2019-06-10T06:10:13.265Z,101442.90
2019-06-10T06:12:47.013Z,101442.48
2019-06-10T06:15:22.095Z,101435.09
2019-06-10T06:18:09.234Z,101429.84
2019-06-10T06:20:31.973Z,101435.72
2019-06-10T06:23:08.905Z,101426.27
2019-06-10T06:25:46.295Z,101428.88
2019-06-10T06:28:17.705Z,101429.82
2019-06-10T06:30:52.822Z,101421.98
2019-06-10T06:33:27.321Z,101411.95
2019-06-10T06:36:03.421Z,101415.34
2019-06-10T06:38:37.180Z,101419.52
2019-06-10T06:41:13.423Z,101413.66
2019-06-10T06:43:45.889Z,101413.41
2019-06-10T06:46:19.242Z,101416.91
2019-06-10T06:48:53.198Z,101404.62
2019-06-10T06:51:37.974Z,101409.95
2019-06-10T06:54:03.251Z,101398.67
2019-06-10T06:56:38.877Z,101397.78
2019-06-10T06:59:13.213Z,101400.37
2019-06-10T07:01:46.881Z,101398.26
2019-06-10T07:04:20.270Z,101396.42
2019-06-10T07:06:55.675Z,101393.20
2019-06-10T07:09:28.887Z,101380.04
2019-06-10T07:12:03.793Z,101383.36
2019-06-10T07:14:38.983Z,101386.48
2019-06-10T07:17:12.729Z,101379.94
2019-06-10T07:19:46.124Z,101370.64
2019-06-10T07:22:19.644Z,101377.81
2019-06-10T07:24:53.120Z,101382.78
2019-06-10T07:27:26.483Z,101368.41
2019-06-10T07:29:59.824Z,101363.84
2019-06-10T07:32:35.845Z,101368.75
2019-06-10T07:35:08.751Z,101375.22
2019-06-10T07:37:44.487Z,101366.48
2019-06-10T07:40:17.125Z,101364.73
2019-06-10T07:42:52.902Z,101359.44
2019-06-10T07:45:25.580Z,101362.50
2019-06-10T07:47:58.920Z,101350.69
2019-06-10T07:50:33.392Z,101356.73
2019-06-10T07:53:07.273Z,101355.39
2019-06-10T07:55:42.115Z,101349.71
2019-06-10T07:58:15.639Z,101344.36
2019-06-10T08:00:49.083Z,101345.48
2019-06-10T08:03:22.572Z,101324.59
2019-06-10T08:05:56.008Z,101323.44
2019-06-10T08:08:29.328Z,101323.95
2019-06-10T08:11:03.525Z,101331.92
2019-06-10T08:13:37.299Z,101330.80
2019-06-10T08:16:13.128Z,101326.34
2019-06-10T08:19:09.687Z,101333.41
2019-06-10T08:21:22.901Z,101324.73
2019-06-10T08:23:56.894Z,101333.44
2019-06-10T08:26:32.360Z,101321.25
2019-06-10T08:29:05.219Z,101319.49
2019-06-10T08:31:38.886Z,101317.06
2019-06-10T08:34:13.487Z,101312.09
2019-06-10T08:36:50.531Z,101306.98
2019-06-10T08:39:23.289Z,101311.80
2019-06-10T08:41:56.584Z,101305.36
2019-06-10T08:44:32.587Z,101300.27
2019-06-10T08:47:04.924Z,101303.83
2019-06-10T08:49:39.159Z,101312.25
2019-06-10T08:52:12.966Z,101303.97
2019-06-10T08:54:49.792Z,101306.48
2019-06-10T08:57:23.827Z,101301.78
2019-06-10T08:59:56.884Z,101298.23
2019-06-10T09:02:31.134Z,101300.12
2019-06-10T09:05:05.290Z,101295.89
2019-06-10T09:07:39.663Z,101289.42
2019-06-10T09:10:13.830Z,101291.22
2019-06-10T09:12:49.647Z,101285.33
2019-06-10T09:15:23.624Z,101284.33
2019-06-10T09:17:57.141Z,101277.50
2019-06-10T09:20:33.014Z,101268.80
2019-06-10T09:23:18.161Z,101264.41
2019-06-10T09:25:41.522Z,101260.80
2019-06-10T09:28:15.513Z,101253.85
2019-06-10T09:30:54.089Z,101259.59
2019-06-10T09:33:24.141Z,101255.66
2019-06-10T09:35:57.581Z,101252.95
2019-06-10T09:38:33.476Z,101245.99
2019-06-10T09:41:06.485Z,101243.33
2019-06-10T09:43:42.658Z,101239.40
2019-06-10T09:46:16.263Z,101232.86
2019-06-10T09:48:52.876Z,101234.17
2019-06-10T09:51:25.541Z,101235.88
2019-06-10T09:54:03.156Z,101144.30
2019-06-10T09:56:33.911Z,101238.81
2019-06-10T09:59:08.287Z,101230.91
2019-06-10T10:01:48.195Z,101224.06
2019-06-10T10:04:16.670Z,101229.28
2019-06-10T10:06:54.815Z,101226.34
2019-06-10T10:09:25.185Z,101227.65
2019-06-10T10:11:58.502Z,101229.86
2019-06-10T10:14:33.526Z,101220.59
2019-06-10T10:17:07.306Z,101227.06
2019-06-10T10:19:45.299Z,101216.14
2019-06-10T10:22:15.707Z,101221.36
2019-06-10T10:24:49.409Z,101219.83
2019-06-10T10:27:23.359Z,101205.97
2019-06-10T10:29:57.441Z,101211.61
2019-06-10T10:32:33.396Z,101193.81
2019-06-10T10:35:06.158Z,101197.24
2019-06-10T10:37:39.461Z,101203.34
2019-06-10T10:40:12.785Z,101192.45
2019-06-10T10:42:52.203Z,101185.00
2019-06-10T10:45:22.759Z,101183.23
2019-06-10T10:47:57.518Z,101185.45
2019-06-10T10:50:33.958Z,101186.81
2019-06-10T10:53:06.140Z,101186.81
2019-06-10T10:55:39.471Z,101178.05
2019-06-10T10:58:12.983Z,101177.80
2019-06-10T11:00:49.323Z,101173.91
2019-06-10T11:03:22.896Z,101172.61
2019-06-10T11:06:00.636Z,101165.56
2019-06-10T11:08:33.264Z,101167.52
2019-06-10T11:11:06.883Z,101167.61
2019-06-10T11:13:43.229Z,101166.76
2019-06-10T11:16:16.748Z,101160.66
2019-06-10T11:18:52.004Z,101152.86
2019-06-10T11:21:25.115Z,101149.68
2019-06-10T11:24:01.525Z,101151.89
2019-06-10T11:26:33.479Z,101146.61
2019-06-10T11:29:06.814Z,101139.09
2019-06-10T11:31:42.549Z,101139.91
2019-06-10T11:34:15.427Z,101132.95
2019-06-10T11:36:49.969Z,101136.88
2019-06-10T11:39:23.866Z,101116.73
2019-06-10T11:41:57.741Z,101114.89
2019-06-10T11:44:33.203Z,101098.23
2019-06-10T11:47:06.461Z,101094.00
2019-06-10T11:49:39.832Z,101085.69
2019-06-10T11:52:13.460Z,101090.03
2019-06-10T11:54:55.849Z,101083.55
2019-06-10T11:57:22.954Z,101079.08
2019-06-10T11:59:57.828Z,101075.64
2019-06-10T12:02:32.954Z,101083.55
2019-06-10T12:05:07.360Z,101086.84
2019-06-10T12:07:42.768Z,101085.19
2019-06-10T12:10:15.754Z,101082.62
2019-06-10T12:12:49.051Z,101083.38
2019-06-10T12:15:23.559Z,101075.69
2019-06-10T12:18:00.775Z,101089.86
2019-06-10T12:20:33.426Z,101072.53
2019-06-10T12:23:06.890Z,101072.19
2019-06-10T12:25:40.249Z,101070.99
2019-06-10T12:28:13.546Z,101073.47
2019-06-10T12:30:46.911Z,101067.11
2019-06-10T12:33:24.862Z,101059.24
2019-06-10T12:35:59.476Z,101056.02
2019-06-10T12:38:33.425Z,101053.20
2019-06-10T12:41:09.570Z,101059.01
2019-06-10T12:43:43.049Z,101064.33
2019-06-10T12:46:15.684Z,101062.11
2019-06-10T12:48:48.974Z,101062.11
2019-06-10T12:51:22.859Z,101062.58
2019-06-10T12:53:57.437Z,101064.09
2019-06-10T12:56:32.797Z,101064.64
2019-06-10T12:59:09.750Z,101060.47
2019-06-10T13:01:43.815Z,101058.15
2019-06-10T13:04:16.011Z,101058.15
2019-06-10T13:06:49.385Z,101054.59
2019-06-10T13:09:23.589Z,101052.56
2019-06-10T13:11:57.928Z,101059.67
2019-06-10T13:14:32.644Z,101055.67
2019-06-10T13:17:06.091Z,101053.92
2019-06-10T13:19:43.262Z,101053.70
2019-06-10T13:22:16.034Z,101042.80
2019-06-10T13:24:49.374Z,101035.65
2019-06-10T13:27:22.868Z,101029.08
2019-06-10T13:29:56.385Z,101029.08
2019-06-10T13:32:32.346Z,101026.63
2019-06-10T13:35:06.299Z,101019.48
2019-06-10T13:37:42.719Z,101023.30
2019-06-10T13:40:15.350Z,101021.36
2019-06-10T13:42:48.668Z,101020.52
2019-06-10T13:45:22.439Z,101019.30
2019-06-10T13:47:58.753Z,101018.94
2019-06-10T13:50:32.842Z,101012.35
2019-06-10T13:53:07.996Z,101009.80
2019-06-10T13:55:41.380Z,101010.81
2019-06-10T13:58:14.816Z,101002.56
2019-06-10T14:00:48.565Z,101001.47
2019-06-10T14:03:22.927Z,100997.61
2019-06-10T14:05:58.574Z,101000.73
2019-06-10T14:08:32.501Z,100994.28
2019-06-10T14:11:07.380Z,100992.96
2019-06-10T14:13:43.155Z,100990.09
2019-06-10T14:16:16.800Z,100996.75
2019-06-10T14:18:50.166Z,100986.69
2019-06-10T14:21:24.450Z,100984.37
2019-06-10T14:23:58.591Z,100984.00
2019-06-10T14:26:40.826Z,100984.47
2019-06-10T14:29:07.646Z,100971.53
2019-06-10T14:31:45.012Z,100971.16
2019-06-10T14:34:18.654Z,100977.81
2019-06-10T14:36:52.597Z,100984.08
2019-06-10T14:39:27.227Z,100980.08
2019-06-10T14:42:00.534Z,100973.94
2019-06-10T14:44:33.898Z,100975.16
2019-06-10T14:47:07.212Z,100964.23
2019-06-10T14:49:42.477Z,100961.73
2019-06-10T14:52:17.056Z,100964.34
2019-06-10T14:54:52.949Z,100964.45
2019-06-10T14:57:25.442Z,100974.14
2019-06-10T14:59:58.808Z,100971.38
2019-06-10T15:02:33.407Z,100971.38
2019-06-10T15:05:09.153Z,100969.63
2019-06-10T15:07:42.699Z,100969.98
2019-06-10T15:10:17.842Z,100964.07
2019-06-10T15:12:52.954Z,100952.45
2019-06-10T15:15:26.674Z,100960.81
2019-06-10T15:18:02.916Z,100954.55
2019-06-10T15:20:36.021Z,100952.69
2019-06-10T15:23:09.516Z,100948.69
2019-06-10T15:25:52.870Z,100944.25
2019-06-10T15:28:21.105Z,100945.56
2019-06-10T15:30:54.583Z,100940.20
2019-06-10T15:33:27.888Z,100935.09
2019-06-10T15:36:02.325Z,100933.20
2019-06-10T15:38:35.878Z,100928.27
2019-06-10T15:41:09.448Z,100925.81
2019-06-10T15:43:43.038Z,100925.02
2019-06-10T15:46:17.904Z,100924.94
2019-06-10T15:48:53.873Z,100923.63
2019-06-10T15:51:26.524Z,100922.11
2019-06-10T15:54:02.439Z,100912.07
2019-06-10T15:56:45.085Z,100910.25
2019-06-10T15:59:13.286Z,100910.78
2019-06-10T16:01:45.300Z,100911.23
2019-06-10T16:04:19.323Z,100919.20
2019-06-10T16:06:53.943Z,100921.41
2019-06-10T16:09:28.440Z,100915.55
2019-06-10T16:12:02.956Z,100918.72
2019-06-10T16:14:36.515Z,100920.95
2019-06-10T16:17:12.483Z,100918.22
2019-06-10T16:19:45.125Z,100915.50
2019-06-10T16:22:19.589Z,100910.50
2019-06-10T16:24:53.000Z,100908.25
2019-06-10T16:27:43.404Z,100905.86
2019-06-10T16:30:02.825Z,100912.88
2019-06-10T16:32:36.302Z,100905.93
2019-06-10T16:35:09.718Z,100915.50
2019-06-10T16:37:43.036Z,100916.47
2019-06-10T16:40:17.120Z,100911.39
2019-06-10T16:42:50.501Z,100903.99
2019-06-10T16:45:29.292Z,100895.66
2019-06-10T16:47:59.049Z,100895.85
2019-06-10T16:50:33.969Z,100892.92
2019-06-10T16:53:07.680Z,100886.60
2019-06-10T16:55:41.022Z,100883.59
2019-06-10T16:58:14.343Z,100874.09
2019-06-10T17:00:47.671Z,100872.38
2019-06-10T17:03:24.675Z,100879.24
2019-06-10T17:05:56.053Z,100875.77
2019-06-10T17:08:30.293Z,100871.39
2019-06-10T17:11:03.711Z,100866.55
2019-06-10T17:13:37.010Z,100867.05
2019-06-10T17:16:12.542Z,100868.22
2019-06-10T17:18:45.640Z,100866.12
2019-06-10T17:21:24.147Z,100865.28
2019-06-10T17:23:56.345Z,100863.23
2019-06-10T17:26:37.723Z,100864.14
2019-06-10T17:29:06.143Z,100877.45
2019-06-10T17:31:39.733Z,100888.93
2019-06-10T17:34:13.571Z,100885.74
2019-06-10T17:36:46.907Z,100892.14
2019-06-10T17:39:21.302Z,100889.41
2019-06-10T17:41:55.252Z,100891.46
2019-06-10T17:44:29.503Z,100895.73
2019-06-10T17:47:03.956Z,100893.66
2019-06-10T17:49:37.285Z,100830.48
2019-06-10T17:52:12.923Z,100905.69
2019-06-10T17:54:46.479Z,100905.31
2019-06-10T17:57:23.155Z,100915.49
2019-06-10T17:59:56.112Z,100921.66
2019-06-10T18:02:31.844Z,100924.11
2019-06-10T18:05:06.871Z,100921.99
2019-06-10T18:07:40.158Z,100925.59
2019-06-10T18:10:13.555Z,100927.86
2019-06-10T18:12:46.940Z,100929.17
2019-06-10T18:15:22.203Z,100920.69
2019-06-10T18:17:56.003Z,100929.17
2019-06-10T18:20:33.083Z,100929.84
2019-06-10T18:23:05.184Z,100926.15
2019-06-10T18:25:38.741Z,100938.84
2019-06-10T18:28:12.265Z,100948.64
2019-06-10T18:30:45.607Z,100948.19
2019-06-10T18:33:18.940Z,100945.16
2019-06-10T18:35:53.284Z,100938.72
2019-06-10T18:38:27.346Z,100940.45
2019-06-10T18:41:03.282Z,100936.30
2019-06-10T18:43:37.005Z,100933.55
2019-06-10T18:46:12.725Z,100932.34
2019-06-10T18:48:45.656Z,100863.02
2019-06-10T18:51:19.112Z,100919.38
2019-06-10T18:53:52.853Z,100925.81
2019-06-10T18:56:27.574Z,100930.08
2019-06-10T18:59:16.155Z,100937.19
2019-06-10T19:01:36.809Z,100936.80
2019-06-10T19:04:13.066Z,100935.09
2019-06-10T19:06:46.577Z,100933.43
2019-06-10T19:09:19.973Z,100927.12
2019-06-10T19:11:53.588Z,100929.63
2019-06-10T19:14:26.930Z,100925.75
2019-06-10T19:17:02.881Z,100938.84
2019-06-10T19:19:36.106Z,100941.23
2019-06-10T19:22:09.747Z,100948.06
2019-06-10T19:24:44.762Z,100950.70
2019-06-10T19:27:18.656Z,100948.31
2019-06-10T19:29:54.905Z,100946.32
2019-06-10T19:32:27.033Z,100946.48
2019-06-10T19:35:02.697Z,100955.24
2019-06-10T19:37:37.351Z,100954.81
2019-06-10T19:40:12.450Z,100952.80
2019-06-10T19:42:46.179Z,100961.17
2019-06-10T19:45:22.842Z,100976.28
2019-06-10T19:47:56.865Z,100975.83
2019-06-10T19:50:32.635Z,100979.70
2019-06-10T19:53:05.677Z,100985.00
2019-06-10T19:55:39.199Z,100991.30
2019-06-10T19:58:13.452Z,101004.20
2019-06-10T20:00:51.116Z,101015.19
2019-06-10T20:03:22.511Z,101021.95
2019-06-10T20:05:55.845Z,101029.77
2019-06-10T20:08:29.182Z,101032.20
2019-06-10T20:11:04.153Z,101035.41
2019-06-10T20:13:38.557Z,101029.13
2019-06-10T20:16:12.168Z,101033.61
2019-06-10T20:18:47.858Z,101029.58
2019-06-10T20:21:22.734Z,101031.50
2019-06-10T20:23:55.569Z,101033.34
2019-06-10T20:26:28.717Z,101026.25
2019-06-10T20:29:03.861Z,101014.98
2019-06-10T20:31:37.860Z,101005.50
2019-06-10T20:34:13.273Z,101009.00
2019-06-10T20:36:46.940Z,101000.28
2019-06-10T20:39:24.380Z,100994.28
2019-06-10T20:41:55.949Z,100982.09
2019-06-10T20:44:29.506Z,100982.81
2019-06-10T20:47:02.815Z,100965.31
2019-06-10T20:49:36.138Z,100968.23
2019-06-10T20:52:12.234Z,100971.07
2019-06-10T20:54:46.370Z,100971.63
2019-06-10T20:57:22.642Z,100969.06
2019-06-10T20:59:56.169Z,100970.88
2019-06-10T21:02:29.521Z,100976.92
2019-06-10T21:05:04.583Z,100982.72
2019-06-10T21:07:39.140Z,100983.17
2019-06-10T21:10:17.068Z,100980.14
2019-06-10T21:12:51.007Z,100991.38
2019-06-10T21:15:24.525Z,100989.72
2019-06-10T21:17:57.867Z,100993.25
2019-06-10T21:20:33.151Z,100989.31
2019-06-10T21:23:06.291Z,100988.06
2019-06-10T21:25:41.192Z,100988.97
2019-06-10T21:28:14.608Z,100990.64
2019-06-10T21:30:52.165Z,100986.28
2019-06-10T21:33:23.508Z,100980.21
2019-06-10T21:35:57.042Z,100972.86
2019-06-10T21:38:32.281Z,100979.00
2019-06-10T21:41:05.436Z,100981.91
2019-06-10T21:43:41.365Z,100980.48
2019-06-10T21:46:14.078Z,100978.02
2019-06-10T21:48:48.951Z,100977.72
2019-06-10T21:51:22.975Z,100978.38
2019-06-10T21:53:56.511Z,100986.67
2019-06-10T21:56:32.251Z,100986.33
2019-06-10T21:59:04.879Z,100987.34
2019-06-10T22:01:38.479Z,100987.00
2019-06-10T22:04:13.356Z,100993.59
2019-06-10T22:06:47.465Z,100985.28
2019-06-10T22:09:20.783Z,100978.25
2019-06-10T22:11:55.703Z,100969.05
2019-06-10T22:14:29.214Z,100964.69
2019-06-10T22:17:03.057Z,100967.36
2019-06-10T22:19:36.535Z,100963.59
2019-06-10T22:22:09.888Z,100965.49
2019-06-10T22:24:43.200Z,100967.09
2019-06-10T22:27:16.541Z,100964.23
2019-06-10T22:29:49.872Z,100962.54
2019-06-10T22:32:24.806Z,100955.41
2019-06-10T22:34:58.521Z,100944.38
2019-06-10T22:37:32.947Z,100951.87
2019-06-10T22:40:06.562Z,100962.12
2019-06-10T22:42:40.128Z,100958.77
2019-06-10T22:45:13.430Z,100953.10
2019-06-10T22:47:47.649Z,100961.69
2019-06-10T22:50:22.984Z,100964.34
2019-06-10T22:52:57.510Z,100963.69
2019-06-10T22:55:32.222Z,100953.59
2019-06-10T22:58:06.395Z,100957.15
2019-06-10T23:00:39.893Z,100950.33
2019-06-10T23:03:13.320Z,100952.99
2019-06-10T23:05:48.110Z,100956.22
2019-06-10T23:08:23.068Z,100948.67
2019-06-10T23:10:58.159Z,100959.89
2019-06-10T23:13:31.606Z,100960.15
2019-06-10T23:16:04.931Z,100956.72
2019-06-10T23:18:38.295Z,100951.65
2019-06-10T23:21:13.415Z,100961.27
2019-06-10T23:23:46.855Z,100964.19
2019-06-10T23:26:22.432Z,100971.39
2019-06-10T23:28:56.027Z,100971.53
2019-06-10T23:31:33.689Z,100975.05
2019-06-10T23:34:06.622Z,100977.23
2019-06-10T23:36:39.937Z,100977.42
2019-06-10T23:39:13.335Z,100984.20
2019-06-10T23:41:46.611Z,100983.41
2019-06-10T23:44:19.950Z,100978.22
2019-06-10T23:46:53.262Z,100983.50
2019-06-10T23:49:26.623Z,100990.09
2019-06-10T23:52:00.936Z,100990.55
2019-06-10T23:54:34.985Z,100989.74
2019-06-10T23:57:08.299Z,100985.83
2019-06-10T23:59:42.739Z,100988.28
